createdAt,value
2019-02-02T00:02:04.143Z,1.41
2019-02-02T00:04:38.866Z,1.58
2019-02-02T00:07:13.702Z,1.58
2019-02-02T00:09:48.599Z,1.53
2019-02-02T00:12:23.537Z,1.62
2019-02-02T00:14:58.426Z,1.59
2019-02-02T00:17:33.370Z,1.73
2019-02-02T00:20:08.924Z,1.57
2019-02-02T00:22:43.870Z,1.65
2019-02-02T00:25:18.713Z,1.60
2019-02-02T00:27:54.748Z,1.57
2019-02-02T00:30:29.578Z,1.40
2019-02-02T00:33:04.565Z,1.49
2019-02-02T00:35:39.300Z,1.47
2019-02-02T00:38:14.164Z,1.49
2019-02-02T00:40:48.986Z,1.47
2019-02-02T00:43:23.836Z,1.41
2019-02-02T00:45:58.700Z,1.32
2019-02-02T00:48:33.709Z,1.41
2019-02-02T00:51:08.576Z,1.23
2019-02-02T00:53:43.564Z,1.24
2019-02-02T00:56:19.676Z,1.31
2019-02-02T00:58:54.421Z,1.30
2019-02-02T01:01:29.168Z,1.23
2019-02-02T01:04:04.132Z,1.12
2019-02-02T01:06:38.861Z,1.12
2019-02-02T01:09:21.709Z,1.05
2019-02-02T01:11:56.658Z,1.05
2019-02-02T01:14:31.539Z,1.12
2019-02-02T01:17:06.382Z,1.01
2019-02-02T01:19:41.396Z,0.98
2019-02-02T01:22:16.232Z,1.10
2019-02-02T01:24:50.996Z,1.00
2019-02-02T01:27:25.806Z,0.89
2019-02-02T01:30:00.772Z,0.98
2019-02-02T01:32:36.678Z,0.91
2019-02-02T01:35:12.979Z,0.94
2019-02-02T01:37:48.226Z,0.83
2019-02-02T01:40:24.355Z,0.74
2019-02-02T01:43:00.102Z,0.73
2019-02-02T01:45:34.948Z,0.74
2019-02-02T01:48:09.777Z,0.74
2019-02-02T01:50:44.622Z,0.72
2019-02-02T01:53:19.442Z,0.81
2019-02-02T01:55:55.144Z,0.69
2019-02-02T01:58:29.978Z,0.70
2019-02-02T02:01:04.770Z,0.79
2019-02-02T02:03:39.514Z,0.73
2019-02-02T02:06:14.347Z,0.67
2019-02-02T02:08:49.350Z,0.67
2019-02-02T02:11:24.222Z,0.76
2019-02-02T02:13:58.964Z,0.65
2019-02-02T02:16:34.013Z,0.69
2019-02-02T02:19:09.784Z,0.75
2019-02-02T02:21:44.523Z,0.51
2019-02-02T02:24:19.323Z,0.61
2019-02-02T02:26:54.563Z,0.71
2019-02-02T02:29:29.372Z,0.63
2019-02-02T02:32:04.322Z,0.77
2019-02-02T02:34:39.027Z,0.68
2019-02-02T02:37:18.756Z,0.51
2019-02-02T02:39:53.604Z,0.49
2019-02-02T02:42:28.468Z,0.57
2019-02-02T02:45:03.298Z,0.54
2019-02-02T02:47:38.480Z,0.46
2019-02-02T02:50:15.911Z,0.44
2019-02-02T02:52:50.853Z,0.43
2019-02-02T02:55:25.552Z,0.45
2019-02-02T02:58:00.375Z,0.34
2019-02-02T03:00:35.292Z,0.41
2019-02-02T03:03:14.956Z,0.25
2019-02-02T03:05:52.696Z,0.27
2019-02-02T03:08:27.808Z,0.27
2019-02-02T03:11:07.738Z,0.22
2019-02-02T03:13:44.110Z,0.31
2019-02-02T03:16:19.903Z,0.15
2019-02-02T03:18:54.698Z,0.30
2019-02-02T03:21:29.381Z,0.23
2019-02-02T03:24:04.315Z,0.28
2019-02-02T03:26:39.037Z,0.24
2019-02-02T03:29:13.867Z,0.20
2019-02-02T03:31:49.084Z,0.25
2019-02-02T03:34:24.787Z,0.36
2019-02-02T03:36:59.493Z,0.25
2019-02-02T03:39:36.192Z,0.30
2019-02-02T03:42:11.135Z,0.26
2019-02-02T03:44:45.942Z,0.18
2019-02-02T03:47:26.575Z,0.19
2019-02-02T03:50:02.119Z,0.31
2019-02-02T03:52:36.878Z,0.25
2019-02-02T03:55:14.296Z,0.26
2019-02-02T03:57:49.016Z,0.22
2019-02-02T04:00:24.099Z,0.12
2019-02-02T04:02:58.949Z,0.13
2019-02-02T04:05:33.887Z,0.21
2019-02-02T04:08:10.512Z,0.09
2019-02-02T04:10:45.250Z,0.12
2019-02-02T04:13:21.612Z,0.08
2019-02-02T04:15:58.901Z,0.09
2019-02-02T04:18:36.294Z,-0.02
2019-02-02T04:21:15.641Z,0.01
2019-02-02T04:23:52.937Z,0.00
2019-02-02T04:26:30.204Z,0.01
2019-02-02T04:29:17.355Z,0.08
2019-02-02T04:31:42.742Z,0.06
2019-02-02T04:34:17.682Z,0.18
2019-02-02T04:36:52.636Z,0.02
2019-02-02T04:39:27.449Z,0.23
2019-02-02T04:42:02.279Z,0.32
2019-02-02T04:44:37.074Z,0.19
2019-02-02T04:47:11.976Z,0.23
2019-02-02T04:49:46.796Z,0.29
2019-02-02T04:52:21.646Z,0.53
2019-02-02T04:54:56.467Z,0.48
2019-02-02T04:57:31.343Z,0.39
2019-02-02T05:00:08.902Z,0.45
2019-02-02T05:02:43.916Z,0.38
2019-02-02T05:05:18.922Z,0.28
2019-02-02T05:07:53.869Z,0.48
2019-02-02T05:10:28.686Z,0.48
2019-02-02T05:13:03.519Z,0.52
2019-02-02T05:15:38.391Z,0.55
2019-02-02T05:18:13.133Z,0.60
2019-02-02T05:20:47.943Z,0.50
2019-02-02T05:23:24.063Z,0.59
2019-02-02T05:25:58.873Z,0.45
2019-02-02T05:28:34.599Z,0.69
2019-02-02T05:31:09.687Z,0.75
2019-02-02T05:33:44.664Z,0.62
2019-02-02T05:36:19.470Z,0.71
2019-02-02T05:38:55.189Z,0.65
2019-02-02T05:41:30.062Z,0.70
2019-02-02T05:44:04.905Z,0.70
2019-02-02T05:46:39.713Z,0.66
2019-02-02T05:49:14.601Z,0.64
2019-02-02T05:51:49.419Z,0.81
2019-02-02T05:54:24.273Z,0.77
2019-02-02T05:56:59.089Z,0.77
2019-02-02T05:59:33.921Z,0.65
2019-02-02T06:02:09.661Z,0.57
2019-02-02T06:04:44.475Z,0.64
2019-02-02T06:07:19.277Z,0.68
2019-02-02T06:09:54.118Z,0.70
2019-02-02T06:12:28.915Z,0.73
2019-02-02T06:15:03.772Z,0.72
2019-02-02T06:17:38.600Z,0.83
2019-02-02T06:20:13.649Z,0.73
2019-02-02T06:22:48.449Z,0.74
2019-02-02T06:25:23.363Z,0.68
2019-02-02T06:27:58.175Z,0.72
2019-02-02T06:30:33.149Z,0.72
2019-02-02T06:33:08.955Z,0.74
2019-02-02T06:35:43.791Z,0.77
2019-02-02T06:38:18.494Z,0.87
2019-02-02T06:40:53.375Z,0.84
2019-02-02T06:43:30.273Z,0.74
2019-02-02T06:46:04.737Z,0.80
2019-02-02T06:48:39.453Z,0.88
2019-02-02T06:51:16.083Z,0.79
2019-02-02T06:53:56.926Z,0.59
2019-02-02T06:56:32.847Z,0.85
2019-02-02T06:59:07.747Z,0.85
2019-02-02T07:01:42.569Z,0.72
2019-02-02T07:04:17.411Z,0.76
2019-02-02T07:06:52.331Z,0.67
2019-02-02T07:09:27.139Z,0.80
2019-02-02T07:12:01.986Z,0.99
2019-02-02T07:14:36.715Z,0.81
2019-02-02T07:17:11.566Z,0.85
2019-02-02T07:19:46.401Z,0.95
2019-02-02T07:22:21.641Z,0.89
2019-02-02T07:24:56.616Z,0.87
2019-02-02T07:27:31.461Z,0.86
2019-02-02T07:30:12.811Z,0.84
2019-02-02T07:32:47.683Z,0.92
2019-02-02T07:35:23.020Z,0.98
2019-02-02T07:37:58.831Z,1.05
2019-02-02T07:40:33.687Z,0.97
2019-02-02T07:43:08.509Z,1.05
2019-02-02T07:45:43.389Z,0.99
2019-02-02T07:48:18.311Z,1.13
2019-02-02T07:50:55.609Z,1.10
2019-02-02T07:53:30.463Z,1.23
2019-02-02T07:56:05.707Z,1.21
2019-02-02T07:58:40.577Z,1.12
2019-02-02T08:01:15.379Z,1.10
2019-02-02T08:03:53.047Z,1.17
2019-02-02T08:06:27.936Z,1.22
2019-02-02T08:09:03.546Z,1.15
2019-02-02T08:11:38.342Z,1.34
2019-02-02T08:14:19.211Z,1.17
2019-02-02T08:16:54.013Z,1.16
2019-02-02T08:19:32.917Z,1.23
2019-02-02T08:22:09.413Z,1.23
2019-02-02T08:24:44.427Z,1.39
2019-02-02T08:27:19.224Z,1.44
2019-02-02T08:29:54.094Z,1.25
2019-02-02T08:32:28.890Z,1.30
2019-02-02T08:35:03.737Z,1.41
2019-02-02T08:37:39.947Z,1.29
2019-02-02T08:40:17.898Z,1.46
2019-02-02T08:42:52.906Z,1.53
2019-02-02T08:45:27.890Z,1.53
2019-02-02T08:48:02.827Z,1.48
2019-02-02T08:50:39.610Z,1.52
2019-02-02T08:53:14.493Z,1.47
2019-02-02T08:55:51.893Z,1.45
2019-02-02T08:58:25.981Z,1.48
2019-02-02T09:01:04.292Z,1.39
2019-02-02T09:03:37.426Z,1.52
2019-02-02T09:06:12.501Z,1.53
2019-02-02T09:08:47.373Z,1.54
2019-02-02T09:11:24.180Z,1.55
2019-02-02T09:13:59.077Z,1.52
2019-02-02T09:16:33.972Z,1.42
2019-02-02T09:19:08.816Z,1.55
2019-02-02T09:21:43.879Z,1.57
2019-02-02T09:24:19.553Z,1.66
2019-02-02T09:26:55.522Z,1.57
2019-02-02T09:29:31.157Z,1.53
2019-02-02T09:32:09.868Z,1.65
2019-02-02T09:34:45.571Z,1.72
2019-02-02T09:37:21.779Z,1.91
2019-02-02T09:39:56.637Z,1.95
2019-02-02T09:42:31.521Z,1.87
2019-02-02T09:45:09.958Z,1.97
2019-02-02T09:47:44.852Z,2.03
2019-02-02T09:50:23.403Z,2.01
2019-02-02T09:52:58.765Z,2.00
2019-02-02T09:55:35.149Z,2.02
2019-02-02T09:58:12.503Z,1.92
2019-02-02T10:00:47.582Z,1.95
2019-02-02T10:03:22.681Z,2.25
2019-02-02T10:05:59.205Z,2.27
2019-02-02T10:08:34.156Z,2.30
2019-02-02T10:11:09.228Z,2.20
2019-02-02T10:13:45.775Z,2.33
2019-02-02T10:16:20.744Z,2.11
2019-02-02T10:18:55.769Z,2.10
2019-02-02T10:21:30.677Z,2.18
2019-02-02T10:24:05.540Z,2.32
2019-02-02T10:26:40.400Z,2.40
2019-02-02T10:29:15.221Z,2.12
2019-02-02T10:31:50.089Z,2.10
2019-02-02T10:34:25.237Z,2.26
2019-02-02T10:37:00.061Z,2.43
2019-02-02T10:39:35.097Z,2.36
2019-02-02T10:42:10.233Z,2.46
2019-02-02T10:44:45.229Z,2.31
2019-02-02T10:47:20.055Z,2.34
2019-02-02T10:49:54.900Z,2.51
2019-02-02T10:52:29.933Z,2.51
2019-02-02T10:55:05.570Z,2.68
2019-02-02T10:57:40.433Z,2.56
2019-02-02T11:00:19.254Z,2.68
2019-02-02T11:02:54.196Z,2.71
2019-02-02T11:05:29.190Z,2.76
2019-02-02T11:08:04.606Z,2.74
2019-02-02T11:10:39.814Z,2.70
2019-02-02T11:13:16.424Z,2.83
2019-02-02T11:15:52.444Z,2.93
2019-02-02T11:18:28.319Z,2.92
2019-02-02T11:21:06.007Z,2.73
2019-02-02T11:23:40.950Z,2.94
2019-02-02T11:26:15.987Z,2.83
2019-02-02T11:28:50.991Z,2.94
2019-02-02T11:31:25.937Z,2.70
2019-02-02T11:34:00.787Z,2.80
2019-02-02T11:36:35.768Z,3.02
2019-02-02T11:39:11.387Z,3.06
2019-02-02T11:41:46.150Z,3.26
2019-02-02T11:44:20.843Z,3.42
2019-02-02T11:46:55.707Z,3.47
2019-02-02T11:49:30.565Z,3.59
2019-02-02T11:52:05.469Z,3.74
2019-02-02T11:54:40.344Z,3.57
2019-02-02T11:57:15.226Z,3.57
2019-02-02T11:59:50.054Z,3.39
2019-02-02T12:02:24.870Z,3.19
2019-02-02T12:04:59.830Z,3.34
2019-02-02T12:07:35.555Z,3.35
2019-02-02T12:10:12.804Z,3.51
2019-02-02T12:12:48.576Z,3.45
2019-02-02T12:15:23.614Z,3.54
2019-02-02T12:17:58.484Z,3.57
2019-02-02T12:20:33.792Z,3.38
2019-02-02T12:23:08.874Z,3.40
2019-02-02T12:25:43.770Z,3.33
2019-02-02T12:28:18.641Z,3.33
2019-02-02T12:30:53.518Z,3.22
2019-02-02T12:33:29.299Z,3.35
2019-02-02T12:36:05.165Z,3.34
2019-02-02T12:38:40.048Z,3.36
2019-02-02T12:41:17.143Z,3.27
2019-02-02T12:43:54.446Z,3.19
2019-02-02T12:46:29.771Z,3.14
2019-02-02T12:49:07.107Z,3.42
2019-02-02T12:51:42.400Z,3.29
2019-02-02T12:54:17.254Z,3.35
2019-02-02T12:56:52.134Z,3.51
2019-02-02T12:59:27.015Z,3.49
2019-02-02T13:02:02.041Z,3.55
2019-02-02T13:04:40.257Z,3.61
2019-02-02T13:07:16.158Z,3.79
2019-02-02T13:09:51.143Z,3.62
2019-02-02T13:12:26.002Z,3.63
2019-02-02T13:15:01.266Z,3.66
2019-02-02T13:17:36.101Z,3.72
2019-02-02T13:20:12.092Z,3.69
2019-02-02T13:22:47.304Z,3.58
2019-02-02T13:25:24.035Z,3.69
2019-02-02T13:28:04.310Z,3.64
2019-02-02T13:30:39.199Z,3.81
2019-02-02T13:33:14.190Z,3.67
2019-02-02T13:35:50.227Z,3.67
2019-02-02T13:38:24.966Z,3.66
2019-02-02T13:40:59.727Z,3.57
2019-02-02T13:43:34.637Z,3.65
2019-02-02T13:46:09.584Z,3.55
2019-02-02T13:48:44.525Z,3.47
2019-02-02T13:51:19.428Z,3.66
2019-02-02T13:53:54.362Z,3.39
2019-02-02T13:56:29.194Z,3.26
2019-02-02T13:59:04.118Z,3.30
2019-02-02T14:01:42.271Z,3.57
2019-02-02T14:04:15.598Z,3.44
2019-02-02T14:06:54.399Z,3.41
2019-02-02T14:09:37.198Z,3.38
2019-02-02T14:12:12.128Z,3.46
2019-02-02T14:14:47.118Z,3.23
2019-02-02T14:17:21.977Z,3.33
2019-02-02T14:19:56.836Z,3.47
2019-02-02T14:22:31.924Z,3.36
2019-02-02T14:25:07.818Z,3.25
2019-02-02T14:27:43.267Z,3.44
2019-02-02T14:30:23.607Z,3.54
2019-02-02T14:32:58.482Z,3.59
2019-02-02T14:35:33.324Z,3.47
2019-02-02T14:38:08.182Z,3.47
2019-02-02T14:40:45.629Z,3.42
2019-02-02T14:43:20.480Z,3.43
2019-02-02T14:45:55.234Z,3.30
2019-02-02T14:48:30.084Z,3.26
2019-02-02T14:51:05.119Z,3.28
2019-02-02T14:53:40.080Z,3.44
2019-02-02T14:56:14.908Z,3.42
2019-02-02T14:58:49.832Z,3.18
2019-02-02T15:01:24.639Z,3.18
2019-02-02T15:03:59.578Z,3.15
2019-02-02T15:06:34.565Z,3.18
2019-02-02T15:09:10.060Z,3.23
2019-02-02T15:11:44.882Z,3.15
2019-02-02T15:14:19.728Z,3.03
2019-02-02T15:16:54.509Z,3.06
2019-02-02T15:19:29.352Z,3.18
2019-02-02T15:22:04.192Z,3.12
2019-02-02T15:24:39.054Z,3.08
2019-02-02T15:27:14.802Z,2.98
2019-02-02T15:29:49.586Z,2.93
2019-02-02T15:32:24.531Z,2.79
2019-02-02T15:34:59.387Z,2.94
2019-02-02T15:37:34.299Z,2.92
2019-02-02T15:40:10.830Z,2.89
2019-02-02T15:42:45.690Z,2.85
2019-02-02T15:45:23.156Z,2.86
2019-02-02T15:47:58.102Z,2.85
2019-02-02T15:50:33.082Z,2.82
2019-02-02T15:53:07.989Z,2.84
2019-02-02T15:55:43.130Z,2.90
2019-02-02T15:58:18.752Z,3.02
2019-02-02T16:00:54.083Z,2.94
2019-02-02T16:03:29.247Z,2.79
2019-02-02T16:06:04.256Z,2.85
2019-02-02T16:08:39.300Z,2.75
2019-02-02T16:11:14.174Z,2.85
2019-02-02T16:13:48.998Z,2.83
2019-02-02T16:16:23.906Z,2.76
2019-02-02T16:18:58.861Z,2.80
2019-02-02T16:21:35.338Z,2.78
2019-02-02T16:24:13.071Z,2.62
2019-02-02T16:26:48.746Z,2.67
2019-02-02T16:29:23.665Z,2.74
2019-02-02T16:32:03.571Z,2.74
2019-02-02T16:34:38.410Z,2.80
2019-02-02T16:37:14.858Z,2.70
2019-02-02T16:39:49.752Z,2.77
2019-02-02T16:42:24.806Z,2.59
2019-02-02T16:44:59.651Z,2.83
2019-02-02T16:47:34.535Z,2.80
2019-02-02T16:50:12.774Z,2.73
2019-02-02T16:52:48.015Z,2.67
2019-02-02T16:55:22.866Z,2.63
2019-02-02T16:57:57.762Z,2.63
2019-02-02T17:00:33.791Z,2.75
2019-02-02T17:03:11.323Z,2.75
2019-02-02T17:05:46.225Z,2.82
2019-02-02T17:08:21.122Z,2.80
2019-02-02T17:10:55.846Z,2.62
2019-02-02T17:13:31.564Z,2.56
2019-02-02T17:16:06.509Z,2.79
2019-02-02T17:18:41.374Z,2.62
2019-02-02T17:21:16.236Z,2.52
2019-02-02T17:23:51.108Z,2.56
2019-02-02T17:26:26.061Z,2.45
2019-02-02T17:29:00.940Z,2.40
2019-02-02T17:31:35.858Z,2.55
2019-02-02T17:34:10.846Z,2.56
2019-02-02T17:36:45.636Z,2.43
2019-02-02T17:39:20.627Z,2.48
2019-02-02T17:41:55.363Z,2.45
2019-02-02T17:44:30.241Z,2.35
2019-02-02T17:47:05.194Z,2.31
2019-02-02T17:49:40.069Z,2.17
2019-02-02T17:52:16.657Z,2.15
2019-02-02T17:54:51.515Z,2.21
2019-02-02T17:57:26.473Z,2.29
2019-02-02T18:00:01.519Z,2.35
2019-02-02T18:02:36.307Z,2.42
2019-02-02T18:05:11.725Z,2.35
2019-02-02T18:07:46.639Z,2.34
2019-02-02T18:10:21.550Z,2.25
2019-02-02T18:12:56.450Z,2.22
2019-02-02T18:15:31.534Z,2.23
2019-02-02T18:18:06.927Z,2.26
2019-02-02T18:20:41.799Z,2.10
2019-02-02T18:23:18.414Z,2.04
2019-02-02T18:25:58.565Z,1.98
2019-02-02T18:28:33.495Z,1.89
2019-02-02T18:31:08.419Z,2.00
2019-02-02T18:33:43.307Z,2.00
2019-02-02T18:36:18.198Z,1.86
2019-02-02T18:38:53.121Z,1.82
2019-02-02T18:41:27.958Z,1.80
2019-02-02T18:44:03.109Z,1.72
2019-02-02T18:46:38.178Z,1.62
2019-02-02T18:49:13.038Z,1.61
2019-02-02T18:51:47.909Z,1.58
2019-02-02T18:54:22.771Z,1.51
2019-02-02T18:56:58.596Z,1.37
2019-02-02T18:59:33.569Z,1.32
2019-02-02T19:02:08.499Z,1.24
2019-02-02T19:04:43.469Z,1.14
2019-02-02T19:07:18.514Z,1.09
2019-02-02T19:09:54.363Z,1.10
2019-02-02T19:12:31.718Z,1.05
2019-02-02T19:15:08.811Z,0.97
2019-02-02T19:17:43.881Z,0.92
2019-02-02T19:20:20.517Z,0.88
2019-02-02T19:22:57.142Z,0.87
2019-02-02T19:25:33.425Z,0.88
2019-02-02T19:28:09.475Z,0.79
2019-02-02T19:30:44.411Z,0.76
2019-02-02T19:33:19.307Z,0.75
2019-02-02T19:35:54.189Z,0.73
2019-02-02T19:38:29.083Z,0.63
2019-02-02T19:41:04.940Z,0.61
2019-02-02T19:43:39.811Z,0.75
2019-02-02T19:46:14.604Z,0.78
2019-02-02T19:48:49.493Z,0.73
2019-02-02T19:51:24.347Z,0.74
2019-02-02T19:53:59.139Z,0.91
2019-02-02T19:56:34.057Z,0.90
2019-02-02T19:59:08.831Z,0.91
2019-02-02T20:01:43.684Z,0.90
2019-02-02T20:04:18.529Z,0.98
2019-02-02T20:06:53.440Z,1.13
2019-02-02T20:09:28.394Z,1.30
2019-02-02T20:12:03.294Z,1.30
2019-02-02T20:14:38.156Z,1.52
2019-02-02T20:17:14.652Z,1.45
2019-02-02T20:19:49.633Z,1.49
2019-02-02T20:22:24.535Z,1.34
2019-02-02T20:24:59.393Z,1.12
2019-02-02T20:27:34.305Z,1.06
2019-02-02T20:30:16.009Z,0.98
2019-02-02T20:32:50.839Z,0.90
2019-02-02T20:35:25.940Z,1.07
2019-02-02T20:38:00.671Z,1.08
2019-02-02T20:40:35.527Z,1.16
2019-02-02T20:43:10.378Z,1.06
2019-02-02T20:45:45.231Z,0.95
2019-02-02T20:48:20.118Z,0.85
2019-02-02T20:50:54.889Z,0.92
2019-02-02T20:53:29.745Z,0.96
2019-02-02T20:56:04.631Z,0.86
2019-02-02T20:58:39.481Z,0.91
2019-02-02T21:01:14.361Z,1.08
2019-02-02T21:03:49.103Z,0.88
2019-02-02T21:06:24.072Z,0.91
2019-02-02T21:08:58.929Z,0.78
2019-02-02T21:11:34.467Z,0.76
2019-02-02T21:14:09.264Z,0.65
2019-02-02T21:16:45.087Z,0.69
2019-02-02T21:19:19.907Z,0.62
2019-02-02T21:21:54.690Z,0.71
2019-02-02T21:24:29.532Z,0.76
2019-02-02T21:27:04.486Z,0.94
2019-02-02T21:29:39.242Z,0.82
2019-02-02T21:32:14.171Z,1.06
2019-02-02T21:34:48.924Z,1.03
2019-02-02T21:37:23.839Z,1.08
2019-02-02T21:39:59.107Z,1.07
2019-02-02T21:42:35.086Z,1.06
2019-02-02T21:45:11.733Z,1.31
2019-02-02T21:47:49.574Z,1.31
2019-02-02T21:50:25.139Z,1.47
2019-02-02T21:53:00.204Z,1.53
2019-02-02T21:55:35.076Z,1.53
2019-02-02T21:58:09.967Z,1.63
2019-02-02T22:00:45.199Z,1.51
2019-02-02T22:03:20.174Z,1.49
2019-02-02T22:05:54.953Z,1.45
2019-02-02T22:08:30.223Z,1.32
2019-02-02T22:11:05.097Z,1.14
2019-02-02T22:13:39.985Z,1.03
2019-02-02T22:16:14.833Z,0.92
2019-02-02T22:18:49.685Z,0.75
2019-02-02T22:21:24.437Z,0.69
2019-02-02T22:24:01.761Z,0.65
2019-02-02T22:26:38.664Z,0.72
2019-02-02T22:29:14.085Z,0.82
2019-02-02T22:31:49.026Z,0.88
2019-02-02T22:34:25.009Z,0.91
2019-02-02T22:37:00.014Z,0.96
2019-02-02T22:39:34.911Z,0.97
2019-02-02T22:42:09.757Z,1.09
2019-02-02T22:44:44.499Z,1.09
2019-02-02T22:47:19.330Z,1.15
2019-02-02T22:49:54.323Z,1.17
2019-02-02T22:52:29.184Z,1.20
2019-02-02T22:55:05.364Z,1.24
2019-02-02T22:57:40.256Z,1.24
2019-02-02T23:00:58.284Z,1.31
2019-02-02T23:04:04.766Z,1.34
2019-02-02T23:07:52.835Z,1.36
2019-02-02T23:11:23.314Z,1.32
2019-02-02T23:14:50.933Z,1.44
2019-02-02T23:17:25.776Z,1.37
2019-02-02T23:20:00.955Z,1.40
2019-02-02T23:22:36.942Z,1.44
2019-02-02T23:25:11.799Z,1.49
2019-02-02T23:27:46.650Z,1.48
2019-02-02T23:30:21.990Z,1.53
2019-02-02T23:32:56.855Z,1.55
2019-02-02T23:35:31.754Z,1.55
2019-02-02T23:38:06.724Z,1.49
2019-02-02T23:40:41.732Z,1.48
2019-02-02T23:43:16.502Z,1.43
2019-02-02T23:45:51.332Z,1.45
2019-02-02T23:48:26.160Z,1.43
2019-02-02T23:51:00.898Z,1.35
2019-02-02T23:53:35.715Z,1.33
2019-02-02T23:56:10.539Z,1.31
2019-02-02T23:58:45.305Z,1.30
